Flight Track Log - Related Links

Times and Time Zones

All times are in EDT time to prevent confusion due to time zone crossing. See the N251NG flight status page for this flight to view local times or setup timezone preferences in your user account.

Time Position Orientation Groundspeed Altitude Reporting Facility
EDT Latitude Longitude Course Direction KTS MPH feet Rate Location/Type
Thu 06:09:17 PM 41.8842 -88.3367 220° Southwest 183 211 3,000  Level Chicago Center
Thu 06:10:19 PM 41.8350 -88.3492 191° South 189 217 4,800 1,548 Climbing Chicago Center
Thu 06:11:21 PM 41.8292 -88.2881 97° East 176 203 6,200 1,452 Climbing Chicago Center
Thu 06:12:23 PM 41.8314 -88.2111 88° East 173 199 7,800 1,597 Climbing Chicago Center
Thu 06:13:00 PM 42.0728 -87.8022 90° East  Level Estimated
Thu 06:13:25 PM 41.8322 -88.1472 89° East 172 198 9,500  Level Chicago Center
Thu 06:14:27 PM 41.8383 -88.0828 83° East 174 200 11,000 1,452 Climbing Chicago Center
Thu 06:15:29 PM 41.8472 -88.0142 80° East 185 213 12,500 968 Climbing Chicago Center
Thu 06:16:31 PM 41.8539 -87.9394 83° East 199 229 13,000 268 Climbing Chicago Center
Thu 06:17:21 PM 41.8500 -87.8500 93° East 254 292 13,000  Level Chicago TRACON
Thu 06:18:21 PM 41.8500 -87.7500 90° East 256 295 13,000  Level Chicago TRACON
Thu 06:19:21 PM 41.8500 -87.6500 90° East 265 305 13,000  Level Chicago TRACON
Thu 06:20:21 PM 41.8333 -87.5500 103° East 263 303 13,000  Level Chicago TRACON
Thu 06:20:40 PM 41.8389 -87.5414 49° Northeast 260 299 13,000  Level Chicago Center
Thu 06:21:42 PM 41.8236 -87.4469 102° East 260 299 13,000  Level Chicago Center
Thu 06:22:44 PM 41.8083 -87.3547 103° East 255 293 13,000  Level Chicago Center
Thu 06:23:46 PM 41.7906 -87.2425 102° East 257 296 13,000  Level Chicago Center
Thu 06:24:48 PM 41.7753 -87.1489 102° East 257 296 13,000  Level Chicago Center
Thu 06:25:50 PM 41.7617 -87.0547 101° East 258 297 13,000  Level Chicago Center
Thu 06:26:52 PM 41.7622 -86.9578 90° East 262 302 13,000  Level Chicago Center
Thu 06:27:54 PM 41.7639 -86.8622 89° East 260 299 13,000  Level Chicago Center
Thu 06:28:56 PM 41.7642 -86.7653 90° East 261 300 13,000 48 Level Chicago Center
Thu 06:29:58 PM 41.7661 -86.6525 89° East 260 299 13,100  Climbing Chicago Center
Thu 06:31:01 PM 41.8092 -86.5744 53° Northeast 264 304 13,000  Descending Chicago Center
Thu 06:32:03 PM 41.8706 -86.5172 35° Northeast 269 310 13,100 48 Climbing Chicago Center
Thu 06:33:05 PM 41.9308 -86.4589 36° Northeast 267 307 13,100  Level Chicago Center
Thu 06:34:07 PM 41.9917 -86.3994 36° Northeast 268 308 13,100  Level Chicago Center
Thu 06:35:09 PM 42.0642 -86.3297 36° Northeast 268 308 13,100  Level Chicago Center
Thu 06:36:11 PM 42.1236 -86.2717 36° Northeast 265 305 13,100  Level Chicago Center
Thu 06:37:13 PM 42.1844 -86.2122 36° Northeast 269 310 13,100  Level Chicago Center
Thu 06:38:15 PM 42.2439 -86.1550 35° Northeast 265 305 13,100  Level Chicago Center
Thu 06:39:17 PM 42.3111 -86.0872 37° Northeast 265 305 13,100  Level Chicago Center
Thu 06:40:19 PM 42.3719 -86.0278 36° Northeast 269 310 13,100 -194 Level Chicago Center
Thu 06:41:21 PM 42.4314 -85.9700 36° Northeast 266 306 12,700 -435 Descending Chicago Center
Thu 06:42:23 PM 42.4914 -85.9094 37° Northeast 270 311 12,200 -581 Descending Chicago Center
Thu 06:43:25 PM 42.5603 -85.8906 11° North 267 307 11,500 -1,152 Descending Chicago Center
Thu 06:44:28 PM 42.6269 -85.8525 23° Northeast 263 303 9,800 -2,064 Descending Chicago Center
Thu 06:45:30 PM 42.6867 -85.7725 45° Northeast 265 305 7,200 -2,371 Descending Chicago Center
Thu 06:46:32 PM 42.7194 -85.6900 62° Northeast 253 291 4,900 -2,129 Descending Chicago Center
Thu 06:47:34 PM 42.7747 -85.6333 37° Northeast 251 289 2,800 -1,403 Descending Chicago Center
Thu 06:48:36 PM 42.8117 -85.5742 50° Northeast 226 260 2,000 -484 Descending Chicago Center
Thu 06:49:38 PM 42.8364 -85.5258 55° Northeast 188 216 1,800 -484 Descending Chicago Center
Thu 06:50:40 PM 42.8628 -85.5122 21° North 137 158 1,000 -774 Descending Chicago Center
Thu 06:52:00 PM 42.8667 -85.5167 36° Northeast  Level FlightAware Approximate
Thu 06:59:00 PM 42.8808 -85.5228 36° Northeast  Level Estimated

Login

Don't have an account? Register now (free) for customized features, flight alerts, and more!